Time;durP1;ratioP1;P1;durP2;ratioP2;P2;SDS_P1;SDS_P2;PMS_P1;PMS_P2;Temp;Humidity;BMP_temperature;BMP_pressure;BME280_temperature;BME280_humidity;BME280_pressure;Samples;Min_cycle;Max_cycle;Signal;HPM_P1;HPM_P2
2024/01/18 00:01:15;;;;;;;;;;;;;;;;;;5076839;28;20326;-68
2024/01/18 00:03:41;;;;;;;;;;;;;;;;;;5094182;28;19915;-68
2024/01/18 00:06:07;;;;;;;;;;;;;;;;;;5095100;28;19914;-68
2024/01/18 00:08:33;;;;;;;;;;;;;;;;;;5095017;28;19908;-68
2024/01/18 00:10:58;;;;;;;;;;;;;;;;;;5095192;28;19922;-68
2024/01/18 00:13:24;;;;;;;;;;;;;;;;;;5094910;28;20401;-68
2024/01/18 00:15:50;;;;;;;;;;;;;;;;;;5094735;28;20269;-68
2024/01/18 00:18:16;;;;;;;;;;;;;;;;;;5076894;28;19961;-68
2024/01/18 00:20:42;;;;;;;;;;;;;;;;;;5094992;28;20368;-68
2024/01/18 00:23:08;;;;;;;;;;;;;;;;;;5094661;28;19939;-68
2024/01/18 00:25:34;;;;;;;;;;;;;;;;;;5095021;28;19943;-68
2024/01/18 00:28:00;;;;;;;;;;;;;;;;;;5094936;28;19918;-68
2024/01/18 00:30:26;;;;;;;;;;;;;;;;;;5075256;28;19990;-68
2024/01/18 00:32:52;;;;;;;;;;;;;;;;;;5094845;28;19908;-69
2024/01/18 00:35:18;;;;;;;;;;;;;;;;;;5094721;28;20329;-68
2024/01/18 00:37:44;;;;;;;;;;;;;;;;;;5094340;28;19970;-68
2024/01/18 00:40:10;;;;;;;;;;;;;;;;;;5094652;28;19908;-68
2024/01/18 00:42:36;;;;;;;;;;;;;;;;;;5094275;28;19961;-67
2024/01/18 00:45:02;;;;;;;;;;;;;;;;;;5094557;28;20380;-67
2024/01/18 00:47:28;;;;;;;;;;;;;;;;;;5094669;28;19934;-70
2024/01/18 00:49:54;;;;;;;;;;;;;;;;;;5093903;28;20360;-67
2024/01/18 00:52:20;;;;;;;;;;;;;;;;;;5076271;28;19908;-67
2024/01/18 00:54:46;;;;;;;;;;;;;;;;;;5094481;28;19908;-67
2024/01/18 00:57:12;;;;;;;;;;;;;;;;;;5094148;28;20353;-67
2024/01/18 00:59:38;;;;;;;;;;;;;;;;;;5094333;28;20318;-67
2024/01/18 01:02:05;;;;;;;;;;;;;;;;;;5076152;28;19912;-67
2024/01/18 01:04:31;;;;;;;;;;;;;;;;;;5093813;28;20349;-68
2024/01/18 01:06:57;;;;;;;;;;;;;;;;;;5094461;28;19915;-68
2024/01/18 01:09:24;;;;;;;;;;;;;;;;;;5094056;28;19957;-68
2024/01/18 01:11:51;;;;;;;;;;;;;;;;;;5093682;28;19966;-67
2024/01/18 01:14:17;;;;;;;;;;;;;;;;;;5094115;28;19909;-68
2024/01/18 01:16:43;;;;;;;;;;;;;;;;;;5094176;28;20265;-68
2024/01/18 01:19:09;;;;;;;;;;;;;;;;;;5093636;28;19908;-67
2024/01/18 01:21:35;;;;;;;;;;;;;;;;;;5094087;28;19908;-67
2024/01/18 01:24:02;;;;;;;;;;;;;;;;;;5094006;28;19908;-67
2024/01/18 01:26:28;;;;;;;;;;;;;;;;;;5093436;28;19942;-67
2024/01/18 01:28:54;;;;;;;;;;;;;;;;;;5094198;28;20319;-67
2024/01/18 01:31:20;;;;;;;;;;;;;;;;;;5093833;28;20003;-67
2024/01/18 01:33:47;;;;;;;;;;;;;;;;;;5093526;28;19953;-67
2024/01/18 01:36:13;;;;;;;;;;;;;;;;;;5093893;28;20269;-68
2024/01/18 01:38:39;;;;;;;;;;;;;;;;;;5094186;28;19909;-68
2024/01/18 01:41:05;;;;;;;;;;;;;;;;;;5093468;28;19910;-68
2024/01/18 01:43:31;;;;;;;;;;;;;;;;;;5093822;28;20419;-67
2024/01/18 01:45:57;;;;;;;;;;;;;;;;;;5075303;28;19909;-68
2024/01/18 01:48:23;;;;;;;;;;;;;;;;;;5075625;28;19974;-68
2024/01/18 01:50:49;;;;;;;;;;;;;;;;;;5075561;28;19916;-68
2024/01/18 01:53:15;;;;;;;;;;;;;;;;;;5093333;28;20348;-68
2024/01/18 01:55:41;;;;;;;;;;;;;;;;;;5075661;28;19908;-67
2024/01/18 01:58:07;;;;;;;;;;;;;;;;;;5093665;28;19908;-68
2024/01/18 02:00:33;;;;;;;;;;;;;;;;;;5093259;28;20253;-68
2024/01/18 02:02:59;;;;;;;;;;;;;;;;;;5093596;28;19995;-67
2024/01/18 02:05:26;;;;;;;;;;;;;;;;;;5093681;28;19909;-68
2024/01/18 02:07:52;;;;;;;;;;;;;;;;;;5093291;28;19908;-67
2024/01/18 02:10:18;;;;;;;;;;;;;;;;;;5093587;28;20366;-68
2024/01/18 02:12:44;;;;;;;;;;;;;;;;;;5093570;28;19947;-68
2024/01/18 02:15:10;;;;;;;;;;;;;;;;;;5093358;28;19940;-68
2024/01/18 02:17:36;;;;;;;;;;;;;;;;;;5093563;28;19974;-67
2024/01/18 02:20:04;;;;;;;;;;;;;;;;;;5093973;28;19914;-67
2024/01/18 02:22:30;;;;;;;;;;;;;;;;;;5093125;28;19908;-68
2024/01/18 02:24:55;;;;;;;;;;;;;;;;;;5093520;28;19915;-67
2024/01/18 02:27:22;;;;;;;;;;;;;;;;;;5093415;28;19987;-68
2024/01/18 02:29:48;;;;;;;;;;;;;;;;;;5093068;28;20293;-67
2024/01/18 02:32:13;;;;;;;;;;;;;;;;;;5093404;28;19915;-67
2024/01/18 02:34:40;;;;;;;;;;;;;;;;;;5093436;28;19908;-66
2024/01/18 02:37:06;;;;;;;;;;;;;;;;;;5093971;28;19915;-66
2024/01/18 02:39:31;;;;;;;;;;;;;;;;;;5097064;28;19908;-67
2024/01/18 02:41:57;;;;;;;;;;;;;;;;;;5096985;28;19961;-67
2024/01/18 02:44:23;;;;;;;;;;;;;;;;;;5078279;28;19908;-66
2024/01/18 02:46:49;;;;;;;;;;;;;;;;;;5096843;28;19908;-67
2024/01/18 02:49:15;;;;;;;;;;;;;;;;;;5096318;28;19908;-67
2024/01/18 02:51:41;;;;;;;;;;;;;;;;;;5096781;28;19962;-67
2024/01/18 02:54:07;;;;;;;;;;;;;;;;;;5096916;28;19908;-67
2024/01/18 02:56:33;;;;;;;;;;;;;;;;;;5096290;28;20550;-67
2024/01/18 02:58:59;;;;;;;;;;;;;;;;;;5096613;28;20009;-67
2024/01/18 03:01:25;;;;;;;;;;;;;;;;;;5096597;28;19975;-67
2024/01/18 03:03:51;;;;;;;;;;;;;;;;;;5096122;28;19919;-67
2024/01/18 03:06:17;;;;;;;;;;;;;;;;;;5096494;28;19908;-67
2024/01/18 03:08:43;;;;;;;;;;;;;;;;;;5096441;28;19962;-67
2024/01/18 03:11:09;;;;;;;;;;;;;;;;;;5095898;28;19916;-67
2024/01/18 03:13:35;;;;;;;;;;;;;;;;;;5096318;28;19908;-67
2024/01/18 03:16:01;;;;;;;;;;;;;;;;;;5096496;28;19962;-67
2024/01/18 03:18:27;;;;;;;;;;;;;;;;;;5077746;28;19909;-68
2024/01/18 03:20:53;;;;;;;;;;;;;;;;;;5096494;28;20407;-67
2024/01/18 03:23:19;;;;;;;;;;;;;;;;;;5096264;28;19911;-67
2024/01/18 03:25:45;;;;;;;;;;;;;;;;;;5095682;28;19908;-67
2024/01/18 03:28:10;;;;;;;;;;;;;;;;;;5096114;28;19912;-68
2024/01/18 03:30:37;;;;;;;;;;;;;;;;;;5095827;28;19920;-67
2024/01/18 03:33:02;;;;;;;;;;;;;;;;;;5095494;28;19915;-67
2024/01/18 03:35:28;;;;;;;;;;;;;;;;;;5095940;28;20321;-67
2024/01/18 03:37:54;;;;;;;;;;;;;;;;;;5077835;28;19912;-67
2024/01/18 03:40:21;;;;;;;;;;;;;;;;;;5095532;28;20292;-68
2024/01/18 03:42:47;;;;;;;;;;;;;;;;;;5095728;28;19939;-68
2024/01/18 03:45:13;;;;;;;;;;;;;;;;;;5095782;28;20379;-68
2024/01/18 03:47:39;;;;;;;;;;;;;;;;;;5095282;28;19943;-68
2024/01/18 03:50:06;;;;;;;;;;;;;;;;;;5095827;28;20388;-68
2024/01/18 03:52:32;;;;;;;;;;;;;;;;;;5095123;28;19995;-68
2024/01/18 03:54:58;;;;;;;;;;;;;;;;;;5095461;28;19955;-67
2024/01/18 03:57:25;;;;;;;;;;;;;;;;;;5095502;28;19958;-67
2024/01/18 03:59:51;;;;;;;;;;;;;;;;;;5095316;28;19916;-68
2024/01/18 04:02:17;;;;;;;;;;;;;;;;;;5095390;28;19947;-68
2024/01/18 04:04:43;;;;;;;;;;;;;;;;;;5095428;28;19908;-68
2024/01/18 04:07:09;;;;;;;;;;;;;;;;;;5094873;28;19961;-67
2024/01/18 04:09:35;;;;;;;;;;;;;;;;;;5095152;28;19912;-69
2024/01/18 04:12:00;;;;;;;;;;;;;;;;;;5077107;28;19915;-68
2024/01/18 04:14:27;;;;;;;;;;;;;;;;;;5094854;28;19955;-68
2024/01/18 04:16:53;;;;;;;;;;;;;;;;;;5095146;28;19908;-68
2024/01/18 04:19:20;;;;;;;;;;;;;;;;;;5095104;28;19915;-68
2024/01/18 04:21:46;;;;;;;;;;;;;;;;;;5094569;28;19908;-68
2024/01/18 04:24:12;;;;;;;;;;;;;;;;;;5095138;28;19915;-68
2024/01/18 04:26:39;;;;;;;;;;;;;;;;;;5095211;28;19915;-68
2024/01/18 04:29:05;;;;;;;;;;;;;;;;;;5094290;28;20357;-67
2024/01/18 04:31:31;;;;;;;;;;;;;;;;;;5094764;28;19926;-68
2024/01/18 04:33:57;;;;;;;;;;;;;;;;;;5076706;28;20273;-68
2024/01/18 04:36:23;;;;;;;;;;;;;;;;;;5094364;28;19909;-68
2024/01/18 04:38:49;;;;;;;;;;;;;;;;;;5094708;28;20355;-68
2024/01/18 04:41:15;;;;;;;;;;;;;;;;;;5095002;28;19908;-68
2024/01/18 04:43:41;;;;;;;;;;;;;;;;;;5094241;28;19908;-68
2024/01/18 04:46:09;;;;;;;;;;;;;;;;;;5076442;28;19916;-68
2024/01/18 04:48:35;;;;;;;;;;;;;;;;;;5094524;28;19908;-68
2024/01/18 04:51:01;;;;;;;;;;;;;;;;;;5094069;28;20006;-68
2024/01/18 04:53:27;;;;;;;;;;;;;;;;;;5076291;28;19987;-68
2024/01/18 04:55:53;;;;;;;;;;;;;;;;;;5075924;28;19908;-68
2024/01/18 04:58:19;;;;;;;;;;;;;;;;;;5094415;28;19908;-68
2024/01/18 05:00:45;;;;;;;;;;;;;;;;;;5093951;28;19908;-67
2024/01/18 05:03:11;;;;;;;;;;;;;;;;;;5093851;28;19918;-67
2024/01/18 05:05:37;;;;;;;;;;;;;;;;;;5094244;28;19908;-68
2024/01/18 05:08:03;;;;;;;;;;;;;;;;;;5094191;28;19931;-68
2024/01/18 05:10:29;;;;;;;;;;;;;;;;;;5093728;28;19916;-68
2024/01/18 05:12:56;;;;;;;;;;;;;;;;;;5094374;28;20379;-67
2024/01/18 05:15:24;;;;;;;;;;;;;;;;;;5076002;28;19914;-68
2024/01/18 05:17:50;;;;;;;;;;;;;;;;;;5093718;28;20292;-68
2024/01/18 05:20:17;;;;;;;;;;;;;;;;;;5094281;28;20323;-67
2024/01/18 05:22:43;;;;;;;;;;;;;;;;;;5094191;28;19908;-68
2024/01/18 05:25:09;;;;;;;;;;;;;;;;;;5093601;28;20360;-68
2024/01/18 05:27:36;;;;;;;;;;;;;;;;;;5093921;28;19996;-67
2024/01/18 05:30:04;;;;;;;;;;;;;;;;;;5093758;28;19926;-67
2024/01/18 05:32:30;;;;;;;;;;;;;;;;;;5075474;28;19943;-68
2024/01/18 05:34:56;;;;;;;;;;;;;;;;;;5093947;28;20272;-67
2024/01/18 05:37:22;;;;;;;;;;;;;;;;;;5093931;28;20049;-67
2024/01/18 05:39:48;;;;;;;;;;;;;;;;;;5093525;28;19908;-68
2024/01/18 05:42:14;;;;;;;;;;;;;;;;;;5075806;28;20368;-68
2024/01/18 05:44:40;;;;;;;;;;;;;;;;;;5075776;28;19930;-68
2024/01/18 05:47:06;;;;;;;;;;;;;;;;;;5075299;28;19916;-67
2024/01/18 05:49:32;;;;;;;;;;;;;;;;;;5075535;28;19923;-68
2024/01/18 05:51:58;;;;;;;;;;;;;;;;;;5075622;28;19958;-67
2024/01/18 05:54:24;;;;;;;;;;;;;;;;;;5093286;28;19912;-67
2024/01/18 05:56:50;;;;;;;;;;;;;;;;;;5093788;28;19914;-67
2024/01/18 05:59:16;;;;;;;;;;;;;;;;;;5075224;28;19912;-68
2024/01/18 06:01:42;;;;;;;;;;;;;;;;;;5093629;28;19909;-67
2024/01/18 06:04:08;;;;;;;;;;;;;;;;;;5093613;28;19955;-67
2024/01/18 06:06:34;;;;;;;;;;;;;;;;;;5093447;28;19912;-67
2024/01/18 06:09:00;;;;;;;;;;;;;;;;;;5075356;28;20314;-67
2024/01/18 06:11:26;;;;;;;;;;;;;;;;;;5075441;28;19916;-67
2024/01/18 06:13:52;;;;;;;;;;;;;;;;;;5096973;28;19908;-67
2024/01/18 06:16:17;;;;;;;;;;;;;;;;;;5097444;28;19946;-67
2024/01/18 06:18:45;;;;;;;;;;;;;;;;;;5079160;28;19908;-67
2024/01/18 06:21:10;;;;;;;;;;;;;;;;;;5096800;28;20383;-68
2024/01/18 06:23:36;;;;;;;;;;;;;;;;;;5097598;28;19908;-68
2024/01/18 06:26:02;;;;;;;;;;;;;;;;;;5097387;28;20003;-68
2024/01/18 06:28:28;;;;;;;;;;;;;;;;;;5096783;28;20437;-67
2024/01/18 06:30:54;;;;;;;;;;;;;;;;;;5096991;28;19970;-67
2024/01/18 06:33:20;;;;;;;;;;;;;;;;;;5097349;28;19908;-67
2024/01/18 06:35:46;;;;;;;;;;;;;;;;;;5096705;28;19908;-67
2024/01/18 06:38:12;;;;;;;;;;;;;;;;;;5097057;28;19915;-67
2024/01/18 06:40:40;;;;;;;;;;;;;;;;;;5096983;28;19908;-66
2024/01/18 06:43:06;;;;;;;;;;;;;;;;;;5078284;28;19916;-66
2024/01/18 06:45:32;;;;;;;;;;;;;;;;;;5096776;28;19908;-66
2024/01/18 06:47:58;;;;;;;;;;;;;;;;;;5097406;28;19939;-67
2024/01/18 06:50:24;;;;;;;;;;;;;;;;;;5096424;28;19927;-67
2024/01/18 06:52:51;;;;;;;;;;;;;;;;;;5095775;28;19908;-67
2024/01/18 06:55:17;;;;;;;;;;;;;;;;;;5096764;28;20369;-66
2024/01/18 06:57:43;;;;;;;;;;;;;;;;;;5096331;28;19908;-66
2024/01/18 07:00:09;;;;;;;;;;;;;;;;;;5096574;28;19915;-67
2024/01/18 07:02:35;;;;;;;;;;;;;;;;;;5094838;28;19908;-66
2024/01/18 07:05:01;;;;;;;;;;;;;;;;;;5096458;28;19908;-67
2024/01/18 07:07:27;;;;;;;;;;;;;;;;;;5096198;28;20311;-67
2024/01/18 07:09:53;;;;;;;;;;;;;;;;;;5094004;28;19912;-67
2024/01/18 07:12:19;;;;;;;;;;;;;;;;;;5094312;28;19912;-67
2024/01/18 07:14:45;;;;;;;;;;;;;;;;;;5094232;28;19908;-68
2024/01/18 07:17:11;;;;;;;;;;;;;;;;;;5093887;28;19916;-67
2024/01/18 07:19:37;;;;;;;;;;;;;;;;;;5094201;28;20284;-67
2024/01/18 07:22:03;;;;;;;;;;;;;;;;;;5094086;28;19915;-66
2024/01/18 07:24:30;;;;;;;;;;;;;;;;;;5092429;28;19908;-66
2024/01/18 07:26:56;;;;;;;;;;;;;;;;;;5095496;28;20372;-66
2024/01/18 07:29:22;;;;;;;;;;;;;;;;;;5095081;28;20007;-65
2024/01/18 07:31:48;;;;;;;;;;;;;;;;;;5095134;28;19916;-66
2024/01/18 07:34:15;;;;;;;;;;;;;;;;;;5095181;28;19920;-66
2024/01/18 07:36:41;;;;;;;;;;;;;;;;;;5094275;28;20420;-66
2024/01/18 07:39:07;;;;;;;;;;;;;;;;;;5093868;28;19934;-65
2024/01/18 07:41:33;;;;;;;;;;;;;;;;;;5095210;28;19919;-66
2024/01/18 07:43:59;;;;;;;;;;;;;;;;;;5089148;28;20371;-66
2024/01/18 07:46:26;;;;;;;;;;;;;;;;;;5075418;28;19908;-65
2024/01/18 07:48:52;;;;;;;;;;;;;;;;;;5095015;28;19912;-67
2024/01/18 07:51:18;;;;;;;;;;;;;;;;;;5094547;28;20394;-67
2024/01/18 08:11:28;;;;;;;;;;;;;;;;;;5105048;27;19916;-65
2024/01/18 08:13:54;;;;;;;;;;;;;;;;;;5103571;28;19913;-65
2024/01/18 08:16:20;;;;;;;;;;;;;;;;;;5102026;28;19938;-66
2024/01/18 08:18:46;;;;;;;;;;;;;;;;;;5104596;28;19923;-66
2024/01/18 08:21:12;;;;;;;;;;;;;;;;;;5104910;28;19920;-66
2024/01/18 08:23:38;;;;;;;;;;;;;;;;;;5100145;28;19973;-65
2024/01/18 08:26:04;;;;;;;;;;;;;;;;;;5106719;28;19918;-66
2024/01/18 08:28:30;;;;;;;;;;;;;;;;;;5102478;28;20010;-66
2024/01/18 08:30:57;;;;;;;;;;;;;;;;;;5099014;28;19935;-64
2024/01/18 08:33:23;;;;;;;;;;;;;;;;;;5108524;28;19908;-65
2024/01/18 08:35:49;;;;;;;;;;;;;;;;;;5098912;28;19919;-66
2024/01/18 08:38:15;;;;;;;;;;;;;;;;;;5102644;28;19908;-66
2024/01/18 08:40:41;;;;;;;;;;;;;;;;;;5097630;28;19920;-65
2024/01/18 08:43:07;;;;;;;;;;;;;;;;;;5098526;28;20643;-65
2024/01/18 08:45:33;;;;;;;;;;;;;;;;;;5099132;28;19913;-66
2024/01/18 08:47:59;;;;;;;;;;;;;;;;;;5091968;28;20383;-65
2024/01/18 08:50:25;;;;;;;;;;;;;;;;;;5099562;28;19919;-66
2024/01/18 08:52:51;;;;;;;;;;;;;;;;;;5099504;28;19912;-67
2024/01/18 08:55:18;;;;;;;;;;;;;;;;;;5102786;28;19919;-66
2024/01/18 08:57:44;;;;;;;;;;;;;;;;;;5103155;28;19953;-66
2024/01/18 09:00:13;;;;;;;;;;;;;;;;;;5103414;28;19920;-67
2024/01/18 09:02:39;;;;;;;;;;;;;;;;;;5098215;28;19982;-66
2024/01/18 09:05:06;;;;;;;;;;;;;;;;;;5101729;28;20333;-67
2024/01/18 09:07:32;;;;;;;;;;;;;;;;;;5103269;28;20293;-66
2024/01/18 09:09:58;;;;;;;;;;;;;;;;;;5090428;28;19923;-66
2024/01/18 09:12:24;;;;;;;;;;;;;;;;;;5085416;28;19963;-67
2024/01/18 09:14:50;;;;;;;;;;;;;;;;;;5083716;28;19920;-66
2024/01/18 09:17:16;;;;;;;;;;;;;;;;;;5085362;28;20399;-66
2024/01/18 09:19:43;;;;;;;;;;;;;;;;;;5075164;28;19925;-67
2024/01/18 09:22:09;;;;;;;;;;;;;;;;;;5084444;28;19923;-66
2024/01/18 09:24:35;;;;;;;;;;;;;;;;;;5081597;28;20388;-69
2024/01/18 09:27:01;;;;;;;;;;;;;;;;;;5078606;28;20025;-64
2024/01/18 09:29:27;;;;;;;;;;;;;;;;;;5070132;28;19919;-66
2024/01/18 09:31:53;;;;;;;;;;;;;;;;;;5069616;28;19912;-66
2024/01/18 09:34:19;;;;;;;;;;;;;;;;;;5081335;28;19973;-66
2024/01/18 09:36:45;;;;;;;;;;;;;;;;;;5081167;28;19916;-68
2024/01/18 09:39:15;;;;;;;;;;;;;;;;;;5076471;28;20027;-66
2024/01/18 09:41:41;;;;;;;;;;;;;;;;;;5076281;28;19912;-66
2024/01/18 09:44:07;;;;;;;;;;;;;;;;;;5076489;28;19931;-67
2024/01/18 09:46:33;;;;;;;;;;;;;;;;;;5080471;28;19935;-67
2024/01/18 09:48:59;;;;;;;;;;;;;;;;;;5071326;28;19916;-67
2024/01/18 09:51:25;;;;;;;;;;;;;;;;;;5087842;28;19962;-66
2024/01/18 09:53:54;;;;;;;;;;;;;;;;;;5090353;28;19908;-66
2024/01/18 09:56:20;;;;;;;;;;;;;;;;;;5074239;28;20471;-68
2024/01/18 09:58:46;;;;;;;;;;;;;;;;;;5081666;28;20002;-67
2024/01/18 10:01:12;;;;;;;;;;;;;;;;;;5076417;28;19923;-68
2024/01/18 10:03:38;;;;;;;;;;;;;;;;;;5082518;28;19917;-67
2024/01/18 10:06:04;;;;;;;;;;;;;;;;;;5079848;28;19920;-67
2024/01/18 10:08:30;;;;;;;;;;;;;;;;;;5077107;28;19920;-66
2024/01/18 10:13:31;;;;;;;;;;;;;;;;;;5116761;27;19926;-69
2024/01/18 10:15:57;;;;;;;;;;;;;;;;;;5124457;28;19918;-70
2024/01/18 10:19:55;;;;;;;;;;;;;;;;;;5085275;27;19924;-65
2024/01/18 10:22:21;;;;;;;;;;;;;;;;;;5088356;28;20385;-66
2024/01/18 10:25:26;;;;;;;;;;;;;;;;;;5088656;27;20406;-68
2024/01/18 10:27:52;;;;;;;;;;;;;;;;;;5082423;28;20415;-67
2024/01/18 10:30:18;;;;;;;;;;;;;;;;;;5087046;28;20012;-65
2024/01/18 10:32:45;;;;;;;;;;;;;;;;;;5080095;28;20014;-66
2024/01/18 10:35:12;;;;;;;;;;;;;;;;;;5087987;28;19912;-66
2024/01/18 10:37:38;;;;;;;;;;;;;;;;;;5076183;28;19913;-68
2024/01/18 10:40:04;;;;;;;;;;;;;;;;;;5083890;28;19917;-67
2024/01/18 10:42:30;;;;;;;;;;;;;;;;;;5078516;28;19913;-68
2024/01/18 10:44:56;;;;;;;;;;;;;;;;;;5079718;28;20407;-67
2024/01/18 10:54:57;;;;;;;;;;;;;;;;;;5107699;27;20280;-68
2024/01/18 10:57:23;;;;;;;;;;;;;;;;;;5111076;27;19918;-71
2024/01/18 10:59:51;;;;;;;;;;;;;;;;;;5111068;28;20333;-68
2024/01/18 11:02:17;;;;;;;;;;;;;;;;;;5120682;27;19916;-68
2024/01/18 11:04:43;;;;;;;;;;;;;;;;;;5112313;28;20612;-68
2024/01/18 11:07:35;;;;;;;;;;;;;;;;;;5085362;28;19920;-68
2024/01/18 11:12:28;;;;;;;;;;;;;;;;;;5107523;27;19943;-67
2024/01/18 11:14:54;;;;;;;;;;;;;;;;;;5110859;28;19916;-70
2024/01/18 11:17:21;;;;;;;;;;;;;;;;;;5122221;27;20427;-68
2024/01/18 11:25:32;;;;;;;;;;;;;;;;;;5072480;27;19920;-68
2024/01/18 11:28:00;;;;;;;;;;;;;;;;;;5084535;28;20850;-67
2024/01/18 11:30:26;;;;;;;;;;;;;;;;;;5073546;28;19953;-68
2024/01/18 11:33:45;;;;;;;;;;;;;;;;;;5087690;27;20388;-67
2024/01/18 11:36:13;;;;;;;;;;;;;;;;;;5085343;28;19919;-68
2024/01/18 11:38:39;;;;;;;;;;;;;;;;;;5086087;28;19917;-68
2024/01/18 11:41:05;;;;;;;;;;;;;;;;;;5082115;28;19978;-68
2024/01/18 11:45:37;;;;;;;;;;;;;;;;;;5085896;28;19916;-68
2024/01/18 11:50:13;;;;;;;;;;;;;;;;;;5087559;27;19925;-69
2024/01/18 11:52:58;;;;;;;;;;;;;;;;;;5063801;28;20639;-68
2024/01/18 11:55:24;;;;;;;;;;;;;;;;;;5066341;28;19920;-69
2024/01/18 11:57:50;;;;;;;;;;;;;;;;;;5064909;28;20430;-68
2024/01/18 12:01:04;;;;;;;;;;;;;;;;;;5112452;27;19920;-68
2024/01/18 12:03:30;;;;;;;;;;;;;;;;;;5088143;28;19922;-69
2024/01/18 12:07:19;;;;;;;;;;;;;;;;;;5087923;27;19913;-67
2024/01/18 12:09:44;;;;;;;;;;;;;;;;;;5084890;28;20323;-68
2024/01/18 12:12:10;;;;;;;;;;;;;;;;;;5087914;28;19908;-67
2024/01/18 12:16:06;;;;;;;;;;;;;;;;;;4918781;27;5695219;-67
2024/01/18 12:18:32;;;;;;;;;;;;;;;;;;5106030;28;19942;-69
2024/01/18 12:21:03;;;;;;;;;;;;;;;;;;5088407;28;19929;-66
2024/01/18 12:23:29;;;;;;;;;;;;;;;;;;5108034;28;19916;-68
2024/01/18 12:25:55;;;;;;;;;;;;;;;;;;5107643;28;19923;-68
2024/01/18 12:28:21;;;;;;;;;;;;;;;;;;5107812;28;20003;-69
2024/01/18 12:32:02;;;;;;;;;;;;;;;;;;5151457;27;19919;-68
2024/01/18 12:35:21;;;;;;;;;;;;;;;;;;5088281;27;19925;-71
2024/01/18 12:41:30;;;;;;;;;;;;;;;;;;5088515;27;20615;-73
2024/01/18 12:46:07;;;;;;;;;;;;;;;;;;5109101;27;20169;-71
2024/01/18 12:48:33;;;;;;;;;;;;;;;;;;5108760;28;19912;-71
2024/01/18 12:50:59;;;;;;;;;;;;;;;;;;5109036;28;19974;-71
2024/01/18 12:53:25;;;;;;;;;;;;;;;;;;5109576;28;19935;-71
2024/01/18 12:55:51;;;;;;;;;;;;;;;;;;5108970;28;20364;-70
2024/01/18 12:58:17;;;;;;;;;;;;;;;;;;5109054;28;20010;-70
2024/01/18 13:00:43;;;;;;;;;;;;;;;;;;5110052;28;19951;-71
2024/01/18 13:03:09;;;;;;;;;;;;;;;;;;5109171;28;19908;-71
2024/01/18 13:05:35;;;;;;;;;;;;;;;;;;5110965;28;19923;-71
2024/01/18 13:08:01;;;;;;;;;;;;;;;;;;5111345;28;19908;-71
2024/01/18 13:10:26;;;;;;;;;;;;;;;;;;5110964;28;19992;-71
2024/01/18 13:12:52;;;;;;;;;;;;;;;;;;5111348;28;19908;-70
2024/01/18 13:15:18;;;;;;;;;;;;;;;;;;5111212;28;19914;-71
2024/01/18 13:17:44;;;;;;;;;;;;;;;;;;5109306;28;19947;-71
2024/01/18 13:20:11;;;;;;;;;;;;;;;;;;5107808;28;19915;-71
2024/01/18 13:22:37;;;;;;;;;;;;;;;;;;5108884;28;20317;-71
2024/01/18 13:25:03;;;;;;;;;;;;;;;;;;5107793;28;19956;-71
2024/01/18 13:27:29;;;;;;;;;;;;;;;;;;5109458;28;19955;-71
2024/01/18 13:29:55;;;;;;;;;;;;;;;;;;5109224;28;19908;-71
2024/01/18 13:32:21;;;;;;;;;;;;;;;;;;5108134;28;19939;-71
2024/01/18 13:34:47;;;;;;;;;;;;;;;;;;5110535;28;19912;-71
2024/01/18 13:37:13;;;;;;;;;;;;;;;;;;5110900;28;19922;-72
2024/01/18 13:39:39;;;;;;;;;;;;;;;;;;5110840;28;19922;-71
2024/01/18 13:42:05;;;;;;;;;;;;;;;;;;5110770;28;19908;-71
2024/01/18 13:44:31;;;;;;;;;;;;;;;;;;5110069;28;19960;-71
2024/01/18 13:46:57;;;;;;;;;;;;;;;;;;5110558;28;19916;-71
2024/01/18 13:49:23;;;;;;;;;;;;;;;;;;5109269;28;19908;-71
2024/01/18 13:51:50;;;;;;;;;;;;;;;;;;5110264;28;19962;-71
2024/01/18 13:54:16;;;;;;;;;;;;;;;;;;5109241;28;20002;-71
2024/01/18 13:56:42;;;;;;;;;;;;;;;;;;5101002;28;19970;-71
2024/01/18 13:59:08;;;;;;;;;;;;;;;;;;5096386;28;19909;-71
2024/01/18 14:01:34;;;;;;;;;;;;;;;;;;5096839;28;19915;-71
2024/01/18 14:04:00;;;;;;;;;;;;;;;;;;5096693;28;19918;-71
2024/01/18 14:06:26;;;;;;;;;;;;;;;;;;5096315;28;19912;-71
2024/01/18 14:08:52;;;;;;;;;;;;;;;;;;5095289;28;19908;-71
2024/01/18 14:11:18;;;;;;;;;;;;;;;;;;5096559;28;19908;-71
2024/01/18 14:13:44;;;;;;;;;;;;;;;;;;5094968;28;19958;-71
2024/01/18 14:16:12;;;;;;;;;;;;;;;;;;5096515;28;20406;-71
2024/01/18 14:18:38;;;;;;;;;;;;;;;;;;5096428;28;19908;-71
2024/01/18 14:21:04;;;;;;;;;;;;;;;;;;5096055;28;19908;-72
2024/01/18 14:23:30;;;;;;;;;;;;;;;;;;5096411;28;19994;-72
2024/01/18 14:25:56;;;;;;;;;;;;;;;;;;5095822;28;19963;-72
2024/01/18 14:32:56;;;;;;;;;;;;;;;;;;5091283;27;19923;-73
2024/01/18 14:35:22;;;;;;;;;;;;;;;;;;5091591;28;20000;-71
2024/01/18 14:39:03;;;;;;;;;;;;;;;;;;5091635;27;20291;-70
2024/01/18 14:41:30;;;;;;;;;;;;;;;;;;5091122;28;20380;-70
2024/01/18 14:43:56;;;;;;;;;;;;;;;;;;5091551;28;20291;-70
2024/01/18 14:46:39;;;;;;;;;;;;;;;;;;5092114;28;19923;-72
2024/01/18 14:49:05;;;;;;;;;;;;;;;;;;5091143;28;19912;-71
2024/01/18 14:51:31;;;;;;;;;;;;;;;;;;5091361;28;19915;-71
2024/01/18 14:53:57;;;;;;;;;;;;;;;;;;5090968;28;19909;-71
2024/01/18 14:56:23;;;;;;;;;;;;;;;;;;5089922;28;19962;-71
2024/01/18 14:58:49;;;;;;;;;;;;;;;;;;5091633;28;20417;-71
2024/01/18 15:01:16;;;;;;;;;;;;;;;;;;5091027;28;19954;-72
2024/01/18 15:03:45;;;;;;;;;;;;;;;;;;5091112;28;19909;-72
2024/01/18 15:06:14;;;;;;;;;;;;;;;;;;5090996;28;19940;-71
2024/01/18 15:08:40;;;;;;;;;;;;;;;;;;5090871;28;19908;-71
2024/01/18 15:11:06;;;;;;;;;;;;;;;;;;5089728;28;19908;-71
2024/01/18 15:13:32;;;;;;;;;;;;;;;;;;5090942;28;19919;-71
2024/01/18 15:15:58;;;;;;;;;;;;;;;;;;5090517;28;20283;-71
2024/01/18 15:18:24;;;;;;;;;;;;;;;;;;5090893;28;19908;-71
2024/01/18 15:20:50;;;;;;;;;;;;;;;;;;5090805;28;19915;-71
2024/01/18 15:23:16;;;;;;;;;;;;;;;;;;5089079;28;19908;-71
2024/01/18 15:25:42;;;;;;;;;;;;;;;;;;5090624;28;19916;-72
2024/01/18 15:28:08;;;;;;;;;;;;;;;;;;5090989;28;19908;-72
2024/01/18 15:30:34;;;;;;;;;;;;;;;;;;5090311;28;19912;-72
2024/01/18 15:33:00;;;;;;;;;;;;;;;;;;5090612;28;20003;-71
2024/01/18 15:35:28;;;;;;;;;;;;;;;;;;5090505;28;19916;-71
2024/01/18 15:37:53;;;;;;;;;;;;;;;;;;5090172;28;20000;-70
2024/01/18 15:40:19;;;;;;;;;;;;;;;;;;5090414;28;20351;-71
2024/01/18 15:42:45;;;;;;;;;;;;;;;;;;5090342;28;20261;-71
2024/01/18 15:45:13;;;;;;;;;;;;;;;;;;5088413;28;19920;-71
2024/01/18 15:47:44;;;;;;;;;;;;;;;;;;5090284;28;20007;-71
2024/01/18 15:50:10;;;;;;;;;;;;;;;;;;5090135;28;19915;-71
2024/01/18 15:52:36;;;;;;;;;;;;;;;;;;5090403;28;20310;-71
2024/01/18 15:55:03;;;;;;;;;;;;;;;;;;5090591;28;20356;-71
2024/01/18 15:57:29;;;;;;;;;;;;;;;;;;5079102;28;20379;-71
2024/01/18 15:59:56;;;;;;;;;;;;;;;;;;5076580;28;19908;-71
2024/01/18 16:02:22;;;;;;;;;;;;;;;;;;5076521;28;20009;-72
2024/01/18 16:04:50;;;;;;;;;;;;;;;;;;5076027;28;19913;-72
2024/01/18 16:07:16;;;;;;;;;;;;;;;;;;5076471;28;19912;-72
2024/01/18 16:09:42;;;;;;;;;;;;;;;;;;5076413;28;19962;-71
2024/01/18 16:12:08;;;;;;;;;;;;;;;;;;5076122;28;19908;-73
2024/01/18 16:14:34;;;;;;;;;;;;;;;;;;5076490;28;20295;-72
2024/01/18 16:17:03;;;;;;;;;;;;;;;;;;5075718;28;19908;-71
2024/01/18 16:19:29;;;;;;;;;;;;;;;;;;5075693;28;19919;-72
2024/01/18 16:21:55;;;;;;;;;;;;;;;;;;5074809;28;19999;-71
2024/01/18 16:24:21;;;;;;;;;;;;;;;;;;5075942;28;19909;-71
2024/01/18 16:26:47;;;;;;;;;;;;;;;;;;5075584;28;19912;-72
2024/01/18 16:29:13;;;;;;;;;;;;;;;;;;5075905;28;19954;-70
2024/01/18 16:31:39;;;;;;;;;;;;;;;;;;5075832;28;19936;-71
2024/01/18 16:34:06;;;;;;;;;;;;;;;;;;5075580;28;19909;-71
2024/01/18 16:36:31;;;;;;;;;;;;;;;;;;5075806;28;19996;-71
2024/01/18 16:38:57;;;;;;;;;;;;;;;;;;5074461;28;19960;-71
2024/01/18 16:41:23;;;;;;;;;;;;;;;;;;5075279;28;19908;-71
2024/01/18 16:43:49;;;;;;;;;;;;;;;;;;5075626;28;20364;-71
2024/01/18 16:46:15;;;;;;;;;;;;;;;;;;5092784;28;19920;-71
2024/01/18 16:48:41;;;;;;;;;;;;;;;;;;5095342;28;20342;-71
2024/01/18 16:51:07;;;;;;;;;;;;;;;;;;5095722;28;19931;-71
2024/01/18 16:53:33;;;;;;;;;;;;;;;;;;5095397;28;19969;-72
2024/01/18 16:55:59;;;;;;;;;;;;;;;;;;5095782;28;20384;-72
2024/01/18 16:58:27;;;;;;;;;;;;;;;;;;5077593;28;19916;-71
2024/01/18 17:00:53;;;;;;;;;;;;;;;;;;5095223;28;19908;-71
2024/01/18 17:03:19;;;;;;;;;;;;;;;;;;5095621;28;20288;-73
2024/01/18 17:05:45;;;;;;;;;;;;;;;;;;5095455;28;20007;-71
2024/01/18 17:08:11;;;;;;;;;;;;;;;;;;5094141;28;19947;-72
2024/01/18 17:10:37;;;;;;;;;;;;;;;;;;5095758;28;19908;-73
2024/01/18 17:13:03;;;;;;;;;;;;;;;;;;5095552;28;19954;-71
2024/01/18 17:15:30;;;;;;;;;;;;;;;;;;5094864;28;19912;-72
2024/01/18 17:17:56;;;;;;;;;;;;;;;;;;5095442;28;19909;-71
2024/01/18 17:20:22;;;;;;;;;;;;;;;;;;5095205;28;19954;-72
2024/01/18 17:22:48;;;;;;;;;;;;;;;;;;5094906;28;19912;-71
2024/01/18 17:25:14;;;;;;;;;;;;;;;;;;5095212;28;20286;-72
2024/01/18 17:27:40;;;;;;;;;;;;;;;;;;5095127;28;19976;-72
2024/01/18 17:30:06;;;;;;;;;;;;;;;;;;5094756;28;19908;-72
2024/01/18 17:32:32;;;;;;;;;;;;;;;;;;5076800;28;19915;-72
2024/01/18 17:34:58;;;;;;;;;;;;;;;;;;5095260;28;19908;-72
2024/01/18 17:37:24;;;;;;;;;;;;;;;;;;5094599;28;19916;-72
2024/01/18 17:39:50;;;;;;;;;;;;;;;;;;5094774;28;19908;-72